createdAt,value
2023-09-01T00:01:08.620Z,7.00
2023-09-01T00:03:57.478Z,8.00
2023-09-01T00:06:25.653Z,7.10
2023-09-01T00:08:53.848Z,6.50
2023-09-01T00:11:21.981Z,6.00
2023-09-01T00:13:50.291Z,8.40
2023-09-01T00:16:18.487Z,7.70
2023-09-01T00:18:46.661Z,7.20
2023-09-01T00:21:14.891Z,7.40
2023-09-01T00:23:42.979Z,6.70
2023-09-01T00:26:11.158Z,6.80
2023-09-01T00:28:40.308Z,5.80
2023-09-01T00:31:08.562Z,7.20
2023-09-01T00:33:36.747Z,8.00
2023-09-01T00:36:05.087Z,7.10
2023-09-01T00:38:33.745Z,4.50
2023-09-01T00:41:02.030Z,4.80
2023-09-01T00:43:30.195Z,5.40
2023-09-01T00:45:59.386Z,6.10
2023-09-01T00:48:28.514Z,7.10
2023-09-01T00:50:56.878Z,7.30
2023-09-01T00:53:27.849Z,7.10
2023-09-01T00:55:58.583Z,6.30
2023-09-01T00:58:27.684Z,6.00
2023-09-01T01:01:00.049Z,6.20
2023-09-01T01:03:28.849Z,7.10
2023-09-01T01:06:19.374Z,5.20
2023-09-01T01:09:18.348Z,7.30
2023-09-01T01:12:24.391Z,5.80
2023-09-01T01:14:56.879Z,8.40
2023-09-01T01:17:25.980Z,7.70
2023-09-01T01:20:28.153Z,6.30
2023-09-01T01:23:09.025Z,5.60
2023-09-01T01:25:38.347Z,6.50
2023-09-01T01:28:09.156Z,9.00
2023-09-01T01:30:38.334Z,6.90
2023-09-01T01:33:29.648Z,7.70
2023-09-01T01:36:20.490Z,7.80
2023-09-01T01:39:00.919Z,7.20
2023-09-01T01:41:33.792Z,8.30
2023-09-01T01:44:04.173Z,5.40
2023-09-01T01:46:34.121Z,6.00
2023-09-01T01:49:08.641Z,6.30
2023-09-01T01:51:37.185Z,8.40
2023-09-01T01:54:07.201Z,5.80
2023-09-01T01:56:35.474Z,5.20
2023-09-01T01:59:06.101Z,8.00
2023-09-01T02:01:34.545Z,6.50
2023-09-01T02:04:02.781Z,8.10
2023-09-01T02:06:30.860Z,7.60
2023-09-01T02:08:59.038Z,6.70
2023-09-01T02:11:28.455Z,7.10
2023-09-01T02:13:58.103Z,11.00
2023-09-01T02:16:26.297Z,8.80
2023-09-01T02:18:54.522Z,6.80
2023-09-01T02:21:23.052Z,8.10
2023-09-01T02:23:51.743Z,7.00
2023-09-01T02:26:24.896Z,10.30
2023-09-01T02:28:53.450Z,9.10
2023-09-01T02:31:22.387Z,8.00
2023-09-01T02:33:50.548Z,9.50
2023-09-01T02:36:36.076Z,10.90
2023-09-01T02:39:08.157Z,11.90
2023-09-01T02:41:36.806Z,8.50
2023-09-01T02:44:05.408Z,8.60
2023-09-01T02:46:33.622Z,9.10
2023-09-01T02:49:01.845Z,9.10
2023-09-01T02:51:30.284Z,9.30
2023-09-01T02:53:58.455Z,9.30
2023-09-01T02:56:26.588Z,11.40
2023-09-01T02:58:55.304Z,9.20
2023-09-01T03:01:23.905Z,16.70
2023-09-01T03:03:52.281Z,10.30
2023-09-01T03:06:20.540Z,12.40
2023-09-01T03:08:48.690Z,9.60
2023-09-01T03:11:16.797Z,9.10
2023-09-01T03:13:44.974Z,11.20
2023-09-01T03:16:13.127Z,8.90
2023-09-01T03:18:41.361Z,10.70
2023-09-01T03:21:13.837Z,9.30
2023-09-01T03:23:44.819Z,8.40
2023-09-01T03:26:13.521Z,8.40
2023-09-01T03:28:42.357Z,9.70
2023-09-01T03:31:12.296Z,8.10
2023-09-01T03:33:42.453Z,9.20
2023-09-01T03:36:11.384Z,9.30
2023-09-01T03:38:40.210Z,8.00
2023-09-01T03:41:09.598Z,8.50
2023-09-01T03:43:37.832Z,8.20
2023-09-01T03:46:06.816Z,8.00
2023-09-01T03:48:36.753Z,7.80
2023-09-01T03:51:06.179Z,7.70
2023-09-01T03:53:34.510Z,9.50
2023-09-01T03:56:11.255Z,10.30
2023-09-01T03:58:42.553Z,9.50
2023-09-01T04:01:14.021Z,6.20
2023-09-01T04:03:44.421Z,8.70
2023-09-01T04:06:14.970Z,8.90
2023-09-01T04:08:44.874Z,9.50
2023-09-01T04:11:13.053Z,12.90
2023-09-01T04:13:41.181Z,9.00
2023-09-01T04:16:09.446Z,8.70
2023-09-01T04:18:37.748Z,9.60
2023-09-01T04:21:06.038Z,8.50
2023-09-01T04:23:34.260Z,8.40
2023-09-01T04:26:04.143Z,8.00
2023-09-01T04:28:33.106Z,8.70
2023-09-01T04:31:03.954Z,8.50
2023-09-01T04:33:32.919Z,8.60
2023-09-01T04:36:07.155Z,9.10
2023-09-01T04:38:35.266Z,9.40
2023-09-01T04:41:03.870Z,8.90
2023-09-01T04:43:35.533Z,8.00
2023-09-01T04:46:04.397Z,7.60
2023-09-01T04:48:32.871Z,9.60
2023-09-01T04:51:03.978Z,9.80
2023-09-01T04:53:32.475Z,8.90
2023-09-01T04:56:00.604Z,8.10
2023-09-01T04:58:28.790Z,9.70
2023-09-01T05:00:57.600Z,9.60
2023-09-01T05:03:27.439Z,10.80
2023-09-01T05:05:58.214Z,9.00
2023-09-01T05:08:26.329Z,8.10
2023-09-01T05:10:54.637Z,9.10
2023-09-01T05:13:22.823Z,9.30
2023-09-01T05:15:51.068Z,11.40
2023-09-01T05:18:19.322Z,11.50
2023-09-01T05:20:49.628Z,7.80
2023-09-01T05:23:17.985Z,7.50
2023-09-01T05:25:52.493Z,7.70
2023-09-01T05:28:20.617Z,10.40
2023-09-01T05:30:48.812Z,9.00
2023-09-01T05:33:17.114Z,8.80
2023-09-01T05:35:45.375Z,7.50
2023-09-01T05:38:13.789Z,7.60
2023-09-01T05:40:42.175Z,10.80
2023-09-01T05:43:10.316Z,13.90
2023-09-01T05:45:39.017Z,8.90
2023-09-01T05:48:07.377Z,8.00
2023-09-01T05:50:35.752Z,10.10
2023-09-01T05:53:05.417Z,7.10
2023-09-01T05:55:33.842Z,6.10
2023-09-01T05:58:01.958Z,7.20
2023-09-01T06:00:30.811Z,8.40
2023-09-01T06:02:59.619Z,6.70
2023-09-01T06:05:27.863Z,7.50
2023-09-01T06:07:56.207Z,6.90
2023-09-01T06:10:24.473Z,6.10
2023-09-01T06:12:52.545Z,6.90
2023-09-01T06:15:20.614Z,8.10
2023-09-01T06:17:48.786Z,8.00
2023-09-01T06:20:20.550Z,7.70
2023-09-01T06:22:49.422Z,11.10
2023-09-01T06:25:17.717Z,5.80
2023-09-01T06:27:45.933Z,6.20
2023-09-01T06:30:14.239Z,7.20
2023-09-01T06:32:42.408Z,7.10
2023-09-01T06:35:10.620Z,7.10
2023-09-01T06:37:38.858Z,6.70
2023-09-01T06:40:07.641Z,5.60
2023-09-01T06:42:35.856Z,5.70
2023-09-01T06:45:05.061Z,7.20
2023-09-01T06:47:33.334Z,5.70
2023-09-01T06:50:01.655Z,7.10
2023-09-01T06:52:29.808Z,5.50
2023-09-01T06:54:57.954Z,6.70
2023-09-01T06:57:26.240Z,5.40
2023-09-01T06:59:54.330Z,6.60
2023-09-01T07:02:22.540Z,6.90
2023-09-01T07:04:50.985Z,8.30
2023-09-01T07:07:19.142Z,7.00
2023-09-01T07:09:47.349Z,5.70
2023-09-01T07:12:16.366Z,6.00
2023-09-01T07:14:44.437Z,5.40
2023-09-01T07:17:13.436Z,5.30
2023-09-01T07:19:42.810Z,5.00
2023-09-01T07:22:10.878Z,5.30
2023-09-01T07:24:39.087Z,6.30
2023-09-01T07:27:07.775Z,5.40
2023-09-01T07:29:36.012Z,6.40
2023-09-01T07:32:04.770Z,6.10
2023-09-01T07:34:34.339Z,6.30
2023-09-01T07:37:02.634Z,5.20
2023-09-01T07:39:30.872Z,5.80
2023-09-01T07:41:59.185Z,6.40
2023-09-01T07:44:27.292Z,6.20
2023-09-01T07:46:55.824Z,5.30
2023-09-01T07:49:24.094Z,5.90
2023-09-01T07:51:52.277Z,5.80
2023-09-01T07:54:20.396Z,7.40
2023-09-01T07:56:48.503Z,6.10
2023-09-01T07:59:16.607Z,5.20
2023-09-01T08:01:46.417Z,6.30
2023-09-01T08:04:14.582Z,5.30
2023-09-01T08:06:44.606Z,5.00
2023-09-01T08:09:12.717Z,7.20
2023-09-01T08:11:40.928Z,5.40
2023-09-01T08:14:09.049Z,8.00
2023-09-01T08:16:37.775Z,6.10
2023-09-01T08:19:06.266Z,7.10
2023-09-01T08:21:35.160Z,5.40
2023-09-01T08:24:04.156Z,5.00
2023-09-01T08:26:34.258Z,6.80
2023-09-01T08:29:02.720Z,5.80
2023-09-01T08:31:31.023Z,4.80
2023-09-01T08:33:59.817Z,4.90
2023-09-01T08:36:28.086Z,6.20
2023-09-01T08:38:56.299Z,6.20
2023-09-01T08:41:25.442Z,6.80
2023-09-01T08:43:59.027Z,4.80
2023-09-01T08:48:57.534Z,5.80
2023-09-01T08:51:25.849Z,7.60
2023-09-01T08:53:54.454Z,4.60
2023-09-01T08:56:24.651Z,4.40
2023-09-01T08:58:53.101Z,6.30
2023-09-01T09:01:21.701Z,4.70
2023-09-01T09:03:49.909Z,5.40
2023-09-01T09:06:31.869Z,4.20
2023-09-01T09:09:17.248Z,4.50
2023-09-01T09:12:05.760Z,3.90
2023-09-01T09:14:58.744Z,4.90
2023-09-01T09:17:46.348Z,4.90
2023-09-01T09:20:21.032Z,3.20
2023-09-01T09:22:57.679Z,2.90
2023-09-01T09:25:30.198Z,3.50
2023-09-01T09:28:15.594Z,3.70
2023-09-01T09:30:51.740Z,3.70
2023-09-01T09:33:31.167Z,3.00
2023-09-01T09:35:59.887Z,2.90
2023-09-01T09:38:44.207Z,4.90
2023-09-01T09:41:14.366Z,4.40
2023-09-01T09:43:46.337Z,3.70
2023-09-01T09:46:17.345Z,4.20
2023-09-01T09:48:45.814Z,2.40
2023-09-01T09:51:17.502Z,4.40
2023-09-01T09:53:49.528Z,5.50
2023-09-01T09:56:32.248Z,5.70
2023-09-01T09:59:05.807Z,3.50
2023-09-01T10:01:41.048Z,3.20
2023-09-01T10:04:10.111Z,4.30
2023-09-01T10:06:38.690Z,3.50
2023-09-01T10:09:07.192Z,5.50
2023-09-01T10:11:35.543Z,3.50
2023-09-01T10:14:04.765Z,4.30
2023-09-01T10:16:33.408Z,4.20
2023-09-01T10:19:01.532Z,5.00
2023-09-01T10:21:29.957Z,2.50
2023-09-01T10:23:58.315Z,2.90
2023-09-01T10:26:28.318Z,4.00
2023-09-01T10:29:06.263Z,5.50
2023-09-01T10:31:37.512Z,5.80
2023-09-01T10:34:15.446Z,3.90
2023-09-01T10:36:45.398Z,4.60
2023-09-01T10:39:25.621Z,5.60
2023-09-01T10:41:59.154Z,4.10
2023-09-01T10:47:33.859Z,4.50
2023-09-01T10:50:04.351Z,4.00
2023-09-01T10:52:36.162Z,4.70
2023-09-01T10:55:06.716Z,4.80
2023-09-01T10:57:50.377Z,5.00
2023-09-01T11:00:29.234Z,3.40
2023-09-01T11:03:31.867Z,3.00
2023-09-01T11:06:02.229Z,4.60
2023-09-01T11:08:32.124Z,5.60
2023-09-01T11:11:11.092Z,3.20
2023-09-01T11:13:39.324Z,3.80
2023-09-01T11:16:12.625Z,5.40
2023-09-01T11:18:40.886Z,4.70
2023-09-01T11:21:09.717Z,8.10
2023-09-01T11:23:38.431Z,7.70
2023-09-01T11:26:06.917Z,10.50
2023-09-01T11:28:35.213Z,8.10
2023-09-01T11:31:05.048Z,10.90
2023-09-01T11:33:38.883Z,4.50
2023-09-01T11:36:11.889Z,3.80
2023-09-01T11:38:42.080Z,4.20
2023-09-01T11:41:13.943Z,3.00
2023-09-01T11:43:42.891Z,6.50
2023-09-01T11:46:13.943Z,4.80
2023-09-01T11:48:42.159Z,6.60
2023-09-01T11:51:11.119Z,4.80
2023-09-01T11:53:39.672Z,4.10
2023-09-01T11:56:23.968Z,4.40
2023-09-01T11:58:57.465Z,4.50
2023-09-01T12:01:29.216Z,6.60
2023-09-01T12:04:06.992Z,6.30
2023-09-01T12:06:46.266Z,4.60
2023-09-01T12:09:17.450Z,4.40
2023-09-01T12:11:55.018Z,6.30
2023-09-01T12:14:23.257Z,6.00
2023-09-01T12:16:54.726Z,2.90
2023-09-01T12:19:24.522Z,5.50
2023-09-01T12:21:54.900Z,7.00
2023-09-01T12:24:23.103Z,8.20
2023-09-01T12:26:55.441Z,5.10
2023-09-01T12:29:24.003Z,4.90
2023-09-01T12:31:52.496Z,4.70
2023-09-01T12:34:20.638Z,5.40
2023-09-01T12:36:50.693Z,4.50
2023-09-01T12:39:18.882Z,6.70
2023-09-01T12:41:47.140Z,6.50
2023-09-01T12:44:15.353Z,4.80
2023-09-01T12:46:43.499Z,6.10
2023-09-01T12:49:11.668Z,5.20
2023-09-01T12:51:39.759Z,5.70
2023-09-01T12:54:08.009Z,5.70
2023-09-01T12:56:36.154Z,7.20
2023-09-01T12:59:04.544Z,5.00
2023-09-01T13:01:34.740Z,6.00
2023-09-01T13:04:02.912Z,8.00
2023-09-01T13:06:31.105Z,5.20
2023-09-01T13:09:05.043Z,5.20
2023-09-01T13:14:49.755Z,4.20
2023-09-01T13:17:18.060Z,3.80
2023-09-01T13:19:46.214Z,6.30
2023-09-01T13:22:14.295Z,4.50
2023-09-01T13:24:42.462Z,4.40
2023-09-01T13:27:11.116Z,5.60
2023-09-01T13:29:39.281Z,5.10
2023-09-01T13:32:07.458Z,4.50
2023-09-01T13:34:38.001Z,7.90
2023-09-01T13:37:11.645Z,6.30
2023-09-01T13:39:42.982Z,7.60
2023-09-01T13:42:11.447Z,7.30
2023-09-01T13:44:39.729Z,5.80
2023-09-01T13:47:08.040Z,5.70
2023-09-01T13:49:36.203Z,5.90
2023-09-01T13:52:04.624Z,5.70
2023-09-01T13:54:32.734Z,4.80
2023-09-01T13:57:00.838Z,4.20
2023-09-01T13:59:29.069Z,3.80
2023-09-01T14:01:57.203Z,4.90
2023-09-01T14:04:25.385Z,4.10
2023-09-01T14:06:54.941Z,3.80
2023-09-01T14:09:23.102Z,5.50
2023-09-01T14:11:51.258Z,3.70
2023-09-01T14:14:19.551Z,4.40
2023-09-01T14:16:48.205Z,5.50
2023-09-01T14:19:16.745Z,7.90
2023-09-01T14:21:45.281Z,5.50
2023-09-01T14:24:13.732Z,7.20
2023-09-01T14:26:42.637Z,3.80
2023-09-01T14:29:11.140Z,4.30
2023-09-01T14:31:39.422Z,5.70
2023-09-01T14:34:07.580Z,4.40
2023-09-01T14:36:35.827Z,4.30
2023-09-01T14:39:04.055Z,3.60
2023-09-01T14:41:32.381Z,5.30
2023-09-01T14:44:00.963Z,3.80
2023-09-01T14:46:33.876Z,4.80
2023-09-01T14:49:02.715Z,4.80
2023-09-01T14:51:30.873Z,5.90
2023-09-01T14:53:59.136Z,5.40
2023-09-01T14:56:27.391Z,3.80
2023-09-01T14:58:57.617Z,5.00
2023-09-01T15:01:27.076Z,5.50
2023-09-01T15:03:55.994Z,4.00
2023-09-01T15:06:26.352Z,3.30
2023-09-01T15:08:54.456Z,4.50
2023-09-01T15:11:22.603Z,6.10
2023-09-01T15:13:50.719Z,4.60
2023-09-01T15:16:18.925Z,3.00
2023-09-01T15:18:47.056Z,4.00
2023-09-01T15:21:15.213Z,3.20
2023-09-01T15:23:44.915Z,4.50
2023-09-01T15:26:14.987Z,4.30
2023-09-01T15:28:43.082Z,5.20
2023-09-01T15:31:11.177Z,5.90
2023-09-01T15:33:39.355Z,6.40
2023-09-01T15:36:07.682Z,5.50
2023-09-01T15:38:35.753Z,5.70
2023-09-01T15:41:03.951Z,3.20
2023-09-01T15:43:32.522Z,4.80
2023-09-01T15:46:01.453Z,3.30
2023-09-01T15:48:30.152Z,2.10
2023-09-01T15:50:59.652Z,4.00
2023-09-01T15:53:29.870Z,2.20
2023-09-01T15:55:58.978Z,1.70
2023-09-01T15:58:27.262Z,3.20
2023-09-01T16:01:09.919Z,4.20
2023-09-01T16:03:52.366Z,4.50
2023-09-01T16:06:22.125Z,3.00
2023-09-01T16:08:50.503Z,2.80
2023-09-01T16:11:18.679Z,3.60
2023-09-01T16:13:50.041Z,2.50
2023-09-01T16:16:18.861Z,1.20
2023-09-01T16:18:47.050Z,1.20
2023-09-01T16:21:15.275Z,1.10
2023-09-01T16:23:43.738Z,1.50
2023-09-01T16:26:12.030Z,1.70
2023-09-01T16:28:40.141Z,2.40
2023-09-01T16:31:08.351Z,1.90
2023-09-01T16:33:36.537Z,2.40
2023-09-01T16:36:04.782Z,2.50
2023-09-01T16:38:34.758Z,3.20
2023-09-01T16:41:02.895Z,1.90
2023-09-01T16:43:31.028Z,2.30
2023-09-01T16:45:59.260Z,2.20
2023-09-01T16:48:28.822Z,4.20
2023-09-01T16:50:57.109Z,2.60
2023-09-01T16:53:25.258Z,2.50
2023-09-01T16:55:54.518Z,2.90
2023-09-01T16:58:27.110Z,5.50
2023-09-01T17:00:55.372Z,2.10
2023-09-01T17:03:23.603Z,2.70
2023-09-01T17:05:52.569Z,2.10
2023-09-01T17:08:20.800Z,1.90
2023-09-01T17:10:50.773Z,2.30
2023-09-01T17:13:19.215Z,3.70
2023-09-01T17:15:47.623Z,3.90
2023-09-01T17:18:15.740Z,2.90
2023-09-01T17:20:55.121Z,1.80
2023-09-01T17:23:27.291Z,2.20
2023-09-01T17:25:56.026Z,1.80
2023-09-01T17:28:24.270Z,2.40
2023-09-01T17:30:52.577Z,2.80
2023-09-01T17:33:21.071Z,2.90
2023-09-01T17:35:49.318Z,2.70
2023-09-01T17:38:17.406Z,4.10
2023-09-01T17:40:45.622Z,2.20
2023-09-01T17:43:14.007Z,2.50
2023-09-01T17:45:42.242Z,1.60
2023-09-01T17:48:10.386Z,1.80
2023-09-01T17:50:40.684Z,2.40
2023-09-01T17:53:09.408Z,1.90
2023-09-01T17:55:37.522Z,2.10
2023-09-01T17:58:08.942Z,1.80
2023-09-01T18:00:37.675Z,2.20
2023-09-01T18:03:06.932Z,3.60
2023-09-01T18:05:35.495Z,2.10
2023-09-01T18:08:08.243Z,4.00
2023-09-01T18:10:40.281Z,2.30
2023-09-01T18:13:08.487Z,3.00
2023-09-01T18:15:39.527Z,3.30
2023-09-01T18:18:07.686Z,5.10
2023-09-01T18:20:35.841Z,3.10
2023-09-01T18:23:04.390Z,3.80
2023-09-01T18:25:35.155Z,4.50
2023-09-01T18:28:03.531Z,4.30
2023-09-01T18:30:31.779Z,3.00
2023-09-01T18:33:07.304Z,3.50
2023-09-01T18:35:37.435Z,4.20
2023-09-01T18:38:15.340Z,4.20
2023-09-01T18:40:43.912Z,3.70
2023-09-01T18:43:12.475Z,3.90
2023-09-01T18:45:42.611Z,5.10
2023-09-01T18:48:12.809Z,6.10
2023-09-01T18:50:46.813Z,4.40
2023-09-01T18:53:15.872Z,3.00
2023-09-01T18:55:46.109Z,3.10
2023-09-01T18:58:16.084Z,2.90
2023-09-01T19:00:46.536Z,4.20
2023-09-01T19:03:22.004Z,4.20
2023-09-01T19:05:52.309Z,3.20
2023-09-01T19:08:26.087Z,4.10
2023-09-01T19:10:54.873Z,5.00
2023-09-01T19:13:28.052Z,9.10
2023-09-01T19:15:59.907Z,10.50
2023-09-01T19:18:41.305Z,9.00
2023-09-01T19:21:13.383Z,7.70
2023-09-01T19:23:42.565Z,6.50
2023-09-01T19:26:19.938Z,4.60
2023-09-01T19:28:48.881Z,4.10
2023-09-01T19:31:17.794Z,4.10
2023-09-01T19:33:55.158Z,7.00
2023-09-01T19:36:27.157Z,4.00
2023-09-01T19:38:55.807Z,4.50
2023-09-01T19:41:24.242Z,3.60
2023-09-01T19:44:01.088Z,4.00
2023-09-01T19:46:29.468Z,4.00
2023-09-01T19:48:59.508Z,5.50
2023-09-01T19:51:30.556Z,4.30
2023-09-01T19:54:00.608Z,5.40
2023-09-01T19:56:29.144Z,5.70
2023-09-01T19:59:00.109Z,6.00
2023-09-01T20:01:31.614Z,7.80
2023-09-01T20:04:01.935Z,5.30
2023-09-01T20:06:30.447Z,4.80
2023-09-01T20:09:15.653Z,6.90
2023-09-01T20:11:45.580Z,6.40
2023-09-01T20:14:17.387Z,5.80
2023-09-01T20:16:46.044Z,7.00
2023-09-01T20:19:22.070Z,7.70
2023-09-01T20:21:50.271Z,9.70
2023-09-01T20:24:18.706Z,5.80
2023-09-01T20:26:46.946Z,8.30
2023-09-01T20:29:15.182Z,8.00
2023-09-01T20:31:43.501Z,10.90
2023-09-01T20:34:11.721Z,12.70
2023-09-01T20:36:39.931Z,10.20
2023-09-01T20:39:08.211Z,8.40
2023-09-01T20:41:36.432Z,8.90
2023-09-01T20:44:04.823Z,9.30
2023-09-01T20:46:34.317Z,7.30
2023-09-01T20:49:02.627Z,6.40
2023-09-01T20:51:30.929Z,6.60
2023-09-01T20:53:59.214Z,5.00
2023-09-01T20:56:27.435Z,7.20
2023-09-01T20:58:55.574Z,5.10
2023-09-01T21:01:23.802Z,4.60
2023-09-01T21:03:53.363Z,5.00
2023-09-01T21:06:21.535Z,5.60
2023-09-01T21:08:49.729Z,5.50
2023-09-01T21:11:17.882Z,4.40
2023-09-01T21:13:46.285Z,5.10
2023-09-01T21:16:14.450Z,5.70
2023-09-01T21:18:42.644Z,5.40
2023-09-01T21:21:10.797Z,5.80
2023-09-01T21:23:39.239Z,5.60
2023-09-01T21:26:10.210Z,7.70
2023-09-01T21:28:38.395Z,5.80
2023-09-01T21:31:07.570Z,5.70
2023-09-01T21:33:35.787Z,5.20
2023-09-01T21:36:04.214Z,7.00
2023-09-01T21:38:32.385Z,5.60
2023-09-01T21:41:00.624Z,6.90
2023-09-01T21:43:28.896Z,7.30
2023-09-01T21:45:57.104Z,8.50
2023-09-01T21:48:25.281Z,5.70
2023-09-01T21:50:53.634Z,7.40
2023-09-01T21:53:21.974Z,5.80
2023-09-01T21:55:50.103Z,6.20
2023-09-01T21:58:18.391Z,6.10
2023-09-01T22:00:49.850Z,7.70
2023-09-01T22:03:18.268Z,8.20
2023-09-01T22:05:46.701Z,6.80
2023-09-01T22:08:14.894Z,4.90
2023-09-01T22:10:43.062Z,5.50
2023-09-01T22:13:11.337Z,5.90
2023-09-01T22:15:39.535Z,5.90
2023-09-01T22:18:07.660Z,6.50
2023-09-01T22:20:35.903Z,6.30
2023-09-01T22:23:04.292Z,7.30
2023-09-01T22:25:32.574Z,7.30
2023-09-01T22:28:01.610Z,6.30
2023-09-01T22:30:30.087Z,6.70
2023-09-01T22:32:58.286Z,7.60
2023-09-01T22:35:26.607Z,6.70
2023-09-01T22:40:28.090Z,9.00
2023-09-01T22:42:56.707Z,7.70
2023-09-01T22:45:25.581Z,9.50
2023-09-01T22:47:53.845Z,8.90
2023-09-01T22:50:24.528Z,8.90
2023-09-01T22:52:52.808Z,7.50
2023-09-01T22:55:21.159Z,9.30
2023-09-01T22:57:50.383Z,9.70
2023-09-01T23:00:18.812Z,10.80
2023-09-01T23:02:47.007Z,8.90
2023-09-01T23:05:16.005Z,8.20
2023-09-01T23:07:44.931Z,9.70
2023-09-01T23:10:13.127Z,7.90
2023-09-01T23:12:41.383Z,8.00
2023-09-01T23:15:09.859Z,6.30
2023-09-01T23:17:38.128Z,6.60
2023-09-01T23:20:07.107Z,10.30
2023-09-01T23:22:35.925Z,7.10
2023-09-01T23:25:05.116Z,7.00
2023-09-01T23:27:33.404Z,6.10
2023-09-01T23:30:01.578Z,5.10
2023-09-01T23:32:29.895Z,6.20
2023-09-01T23:34:58.065Z,8.50
2023-09-01T23:37:26.366Z,7.30
2023-09-01T23:39:54.615Z,6.00
2023-09-01T23:42:24.710Z,6.80
2023-09-01T23:44:54.404Z,7.10
2023-09-01T23:47:23.469Z,6.50
2023-09-01T23:49:53.458Z,7.40
2023-09-01T23:52:21.831Z,8.50
2023-09-01T23:54:51.683Z,6.20
2023-09-01T23:57:19.902Z,8.60
2023-09-01T23:59:48.548Z,8.50
